createdAt,value
2018-11-12T00:00:55.140Z,0
2018-11-12T00:02:03.211Z,0
2018-11-12T00:03:11.281Z,0
2018-11-12T00:04:19.336Z,0
2018-11-12T00:05:27.399Z,0
2018-11-12T00:06:35.469Z,0
2018-11-12T00:07:43.523Z,0
2018-11-12T00:08:51.579Z,0
2018-11-12T00:09:59.629Z,0
2018-11-12T00:11:07.702Z,0
2018-11-12T00:12:15.752Z,0
2018-11-12T00:13:23.840Z,0
2018-11-12T00:14:31.888Z,0
2018-11-12T00:15:39.937Z,0
2018-11-12T00:16:48.011Z,0
2018-11-12T00:17:56.050Z,0
2018-11-12T00:19:04.108Z,0
2018-11-12T00:20:12.180Z,0
2018-11-12T00:21:20.251Z,0
2018-11-12T00:22:28.299Z,0
2018-11-12T00:23:36.352Z,0
2018-11-12T00:24:44.383Z,0
2018-11-12T00:25:52.493Z,0
2018-11-12T00:27:00.540Z,0
2018-11-12T00:28:08.594Z,0
2018-11-12T00:29:16.647Z,0
2018-11-12T00:30:24.698Z,0
2018-11-12T00:31:32.760Z,0
2018-11-12T00:32:40.835Z,0
2018-11-12T00:33:48.895Z,0
2018-11-12T00:34:56.981Z,0
2018-11-12T00:36:04.988Z,0
2018-11-12T00:37:13.072Z,0
2018-11-12T00:38:21.131Z,0
2018-11-12T00:39:29.194Z,0
2018-11-12T00:40:37.246Z,0
2018-11-12T00:41:45.297Z,0
2018-11-12T00:42:53.374Z,0
2018-11-12T00:44:01.434Z,0
2018-11-12T00:45:09.490Z,0
2018-11-12T00:46:17.557Z,0
2018-11-12T00:47:25.606Z,0
2018-11-12T00:48:33.675Z,0
2018-11-12T00:49:41.728Z,0
2018-11-12T00:50:49.775Z,0
2018-11-12T00:51:57.845Z,0
2018-11-12T00:53:05.914Z,0
2018-11-12T00:54:13.967Z,0
2018-11-12T00:55:22.015Z,0
2018-11-12T00:56:30.076Z,0
2018-11-12T00:57:38.146Z,0
2018-11-12T00:58:46.204Z,0
2018-11-12T00:59:54.251Z,0
2018-11-12T01:01:02.438Z,0
2018-11-12T01:02:10.386Z,0
2018-11-12T01:03:18.433Z,0
2018-11-12T01:04:26.502Z,0
2018-11-12T01:05:34.536Z,0
2018-11-12T01:06:42.644Z,0
2018-11-12T01:07:50.691Z,0
2018-11-12T01:08:58.738Z,0
2018-11-12T01:10:06.792Z,0
2018-11-12T01:11:14.832Z,0
2018-11-12T01:12:22.934Z,0
2018-11-12T01:13:30.969Z,0
2018-11-12T01:14:39.036Z,0
2018-11-12T01:15:47.106Z,0
2018-11-12T01:16:55.132Z,0
2018-11-12T01:18:03.212Z,0
2018-11-12T01:19:11.275Z,0
2018-11-12T01:20:19.343Z,0
2018-11-12T01:21:27.381Z,0
2018-11-12T01:22:35.442Z,0
2018-11-12T01:23:43.504Z,0
2018-11-12T01:24:51.581Z,0
2018-11-12T01:25:59.603Z,0
2018-11-12T01:27:07.697Z,0
2018-11-12T01:28:15.742Z,0
2018-11-12T01:29:23.817Z,0
2018-11-12T01:30:31.859Z,0
2018-11-12T01:31:39.921Z,0
2018-11-12T01:32:47.989Z,0
2018-11-12T01:33:56.036Z,0
2018-11-12T01:35:04.081Z,0
2018-11-12T01:36:12.160Z,0
2018-11-12T01:37:20.215Z,0
2018-11-12T01:38:28.389Z,0
2018-11-12T01:39:36.365Z,0
2018-11-12T01:40:44.374Z,0
2018-11-12T01:41:52.477Z,0
2018-11-12T01:43:00.500Z,0
2018-11-12T01:44:08.549Z,0
2018-11-12T01:45:16.637Z,0
2018-11-12T01:46:24.664Z,0
2018-11-12T01:47:32.754Z,0
2018-11-12T01:48:40.804Z,0
2018-11-12T01:49:48.849Z,0
2018-11-12T01:50:56.917Z,0
2018-11-12T01:52:04.956Z,0
2018-11-12T01:53:13.042Z,0
2018-11-12T01:54:21.116Z,0
2018-11-12T01:55:29.168Z,0
2018-11-12T01:56:37.257Z,0
2018-11-12T01:57:45.294Z,0
2018-11-12T01:58:53.334Z,0
2018-11-12T02:00:01.385Z,0
2018-11-12T02:01:09.469Z,0
2018-11-12T02:02:17.508Z,0
2018-11-12T02:03:25.567Z,0
2018-11-12T02:04:33.626Z,0
2018-11-12T02:05:41.703Z,0
2018-11-12T02:06:49.748Z,0
2018-11-12T02:07:57.801Z,0
2018-11-12T02:09:05.970Z,0
2018-11-12T02:10:13.949Z,0
2018-11-12T02:11:21.993Z,0
2018-11-12T02:12:30.140Z,0
2018-11-12T02:13:38.109Z,0
2018-11-12T02:14:46.270Z,0
2018-11-12T02:15:54.204Z,0
2018-11-12T02:17:02.493Z,0
2018-11-12T02:18:10.544Z,0
2018-11-12T02:19:18.615Z,0
2018-11-12T02:20:26.656Z,0
2018-11-12T02:21:34.710Z,0
2018-11-12T02:22:42.789Z,0
2018-11-12T02:23:50.843Z,0
2018-11-12T02:24:58.897Z,0
2018-11-12T02:26:06.972Z,0
2018-11-12T02:27:14.996Z,0
2018-11-12T02:28:23.079Z,0
2018-11-12T02:29:31.161Z,0
2018-11-12T02:30:39.208Z,0
2018-11-12T02:31:47.260Z,0
2018-11-12T02:32:55.368Z,0
2018-11-12T02:34:03.374Z,0
2018-11-12T02:35:11.448Z,0
2018-11-12T02:36:19.490Z,0
2018-11-12T02:37:27.572Z,0
2018-11-12T02:38:35.612Z,0
2018-11-12T02:39:43.679Z,0
2018-11-12T02:40:51.731Z,0
2018-11-12T02:41:59.803Z,0
2018-11-12T02:43:07.864Z,0
2018-11-12T02:44:15.921Z,0
2018-11-12T02:45:23.972Z,0
2018-11-12T02:46:32.038Z,0
2018-11-12T02:47:40.085Z,0
2018-11-12T02:48:48.152Z,0
2018-11-12T02:49:56.223Z,0
2018-11-12T02:51:04.289Z,0
2018-11-12T02:52:12.332Z,0
2018-11-12T02:53:20.374Z,0
2018-11-12T02:54:28.460Z,0
2018-11-12T02:55:36.521Z,0
2018-11-12T02:56:44.548Z,0
2018-11-12T02:57:52.621Z,0
2018-11-12T02:59:00.692Z,0
2018-11-12T03:00:08.749Z,0
2018-11-12T03:01:16.839Z,0
2018-11-12T03:02:24.848Z,0
2018-11-12T03:03:32.916Z,0
2018-11-12T03:04:40.997Z,0
2018-11-12T03:05:49.037Z,0
2018-11-12T03:06:57.098Z,0
2018-11-12T03:08:05.299Z,0
2018-11-12T03:09:13.249Z,0
2018-11-12T03:10:21.282Z,0
2018-11-12T03:11:29.344Z,0
2018-11-12T03:12:37.403Z,0
2018-11-12T03:13:45.460Z,0
2018-11-12T03:14:53.515Z,0
2018-11-12T03:16:01.563Z,0
2018-11-12T03:17:09.620Z,0
2018-11-12T03:18:17.701Z,0
2018-11-12T03:19:25.759Z,0
2018-11-12T03:20:33.809Z,0
2018-11-12T03:21:41.869Z,0
2018-11-12T03:22:49.944Z,0
2018-11-12T03:23:57.987Z,0
2018-11-12T03:25:06.053Z,0
2018-11-12T03:26:14.113Z,0
2018-11-12T03:27:22.179Z,0
2018-11-12T03:28:30.244Z,0
2018-11-12T03:29:38.299Z,0
2018-11-12T03:30:46.367Z,0
2018-11-12T03:31:54.401Z,0
2018-11-12T03:33:02.480Z,0
2018-11-12T03:34:10.520Z,0
2018-11-12T03:35:18.575Z,0
2018-11-12T03:36:26.661Z,0
2018-11-12T03:37:34.678Z,0
2018-11-12T03:38:42.788Z,0
2018-11-12T03:39:50.888Z,0
2018-11-12T03:40:58.899Z,0
2018-11-12T03:42:06.948Z,0
2018-11-12T03:43:14.982Z,0
2018-11-12T03:44:23.061Z,0
2018-11-12T03:45:31.136Z,0
2018-11-12T03:46:39.193Z,0
2018-11-12T03:47:47.249Z,0
2018-11-12T03:48:55.301Z,0
2018-11-12T03:50:03.370Z,0
2018-11-12T03:51:11.407Z,0
2018-11-12T03:52:19.481Z,0
2018-11-12T03:53:27.561Z,0
2018-11-12T03:54:35.612Z,0
2018-11-12T03:55:43.654Z,0
2018-11-12T03:56:51.722Z,0
2018-11-12T03:57:59.785Z,0
2018-11-12T03:59:07.848Z,0
2018-11-12T04:00:16.021Z,0
2018-11-12T04:01:23.950Z,0
2018-11-12T04:02:32.017Z,0
2018-11-12T04:03:40.086Z,0
2018-11-12T04:04:48.140Z,0
2018-11-12T04:05:56.205Z,0
2018-11-12T04:07:04.244Z,0
2018-11-12T04:08:12.331Z,0
2018-11-12T04:09:20.378Z,0
2018-11-12T04:10:28.436Z,0
2018-11-12T04:11:36.509Z,0
2018-11-12T04:12:44.539Z,0
2018-11-12T04:13:52.626Z,0
2018-11-12T04:15:00.677Z,0
2018-11-12T04:16:08.729Z,0
2018-11-12T04:17:16.804Z,0
2018-11-12T04:18:24.828Z,0
2018-11-12T04:19:32.919Z,0
2018-11-12T04:20:40.975Z,0
2018-11-12T04:21:49.042Z,0
2018-11-12T04:22:57.086Z,0
2018-11-12T04:24:05.128Z,0
2018-11-12T04:25:13.214Z,0
2018-11-12T04:26:21.273Z,0
2018-11-12T04:27:29.330Z,0
2018-11-12T04:28:37.382Z,0
2018-11-12T04:29:45.446Z,0
2018-11-12T04:30:53.517Z,0
2018-11-12T04:32:01.572Z,0
2018-11-12T04:33:09.631Z,0
2018-11-12T04:34:17.685Z,0
2018-11-12T04:35:25.747Z,0
2018-11-12T04:36:33.802Z,0
2018-11-12T04:37:41.851Z,0
2018-11-12T04:38:49.923Z,0
2018-11-12T04:39:57.995Z,0
2018-11-12T04:41:06.053Z,0
2018-11-12T04:42:14.108Z,0
2018-11-12T04:43:22.162Z,0
2018-11-12T04:44:30.223Z,0
2018-11-12T04:45:38.355Z,0
2018-11-12T04:46:46.349Z,0
2018-11-12T04:47:54.369Z,0
2018-11-12T04:49:02.479Z,0
2018-11-12T04:50:10.521Z,0
2018-11-12T04:51:18.585Z,0
2018-11-12T04:52:26.637Z,0
2018-11-12T04:53:34.684Z,0
2018-11-12T04:54:42.751Z,0
2018-11-12T04:55:50.808Z,0
2018-11-12T04:56:58.875Z,0
2018-11-12T04:58:06.941Z,0
2018-11-12T04:59:15.990Z,0
2018-11-12T05:00:24.041Z,0
2018-11-12T05:01:32.122Z,0
2018-11-12T05:02:40.176Z,0
2018-11-12T05:03:48.229Z,0
2018-11-12T05:04:57.292Z,0
2018-11-12T05:06:06.429Z,0
2018-11-12T05:07:18.541Z,0
2018-11-12T05:08:24.067Z,0
2018-11-12T05:09:32.809Z,0
2018-11-12T05:10:40.200Z,0
2018-11-12T05:11:48.248Z,0
2018-11-12T05:12:56.322Z,0
2018-11-12T05:14:04.340Z,0
2018-11-12T05:15:12.549Z,0
2018-11-12T05:16:20.489Z,0
2018-11-12T05:17:28.654Z,0
2018-11-12T05:18:37.215Z,0
2018-11-12T05:19:44.636Z,0
2018-11-12T05:20:52.866Z,0
2018-11-12T05:22:00.806Z,0
2018-11-12T05:23:08.840Z,0
2018-11-12T05:24:16.894Z,0
2018-11-12T05:25:25.003Z,0
2018-11-12T05:27:50.164Z,0
2018-11-12T05:28:58.223Z,0
2018-11-12T05:30:07.903Z,0
2018-11-12T05:31:14.305Z,0
2018-11-12T05:32:22.409Z,0
2018-11-12T05:33:30.449Z,0
2018-11-12T05:34:38.538Z,0
2018-11-12T05:35:46.573Z,0
2018-11-12T05:36:54.614Z,0
2018-11-12T05:38:02.844Z,0
2018-11-12T05:39:10.750Z,0
2018-11-12T05:40:18.813Z,0
2018-11-12T05:41:26.881Z,0
2018-11-12T05:42:34.901Z,0
2018-11-12T05:43:42.987Z,0
2018-11-12T05:44:51.093Z,0
2018-11-12T05:45:59.723Z,0
2018-11-12T05:47:07.156Z,0
2018-11-12T05:48:15.219Z,0
2018-11-12T05:49:23.270Z,0
2018-11-12T05:50:31.356Z,0
2018-11-12T05:51:39.503Z,0
2018-11-12T05:52:47.457Z,0
2018-11-12T05:53:55.515Z,0
2018-11-12T05:55:03.578Z,0
2018-11-12T05:56:11.632Z,0
2018-11-12T05:57:19.690Z,0
2018-11-12T05:58:27.742Z,0
2018-11-12T05:59:35.824Z,0
2018-11-12T06:00:43.863Z,0
2018-11-12T06:01:51.916Z,0
2018-11-12T06:02:59.980Z,0
2018-11-12T06:04:08.066Z,0
2018-11-12T06:05:16.150Z,0
2018-11-12T06:06:24.160Z,0
2018-11-12T06:07:32.237Z,0
2018-11-12T06:08:41.883Z,0
2018-11-12T06:09:49.547Z,0
2018-11-12T06:10:57.609Z,0
2018-11-12T06:12:05.662Z,0
2018-11-12T06:13:13.730Z,0
2018-11-12T06:14:21.767Z,0
2018-11-12T06:15:29.840Z,0
2018-11-12T06:16:37.911Z,0
2018-11-12T06:17:45.978Z,0
2018-11-12T06:18:54.006Z,5
2018-11-12T06:20:02.074Z,5
2018-11-12T06:21:10.142Z,5
2018-11-12T06:22:18.201Z,5
2018-11-12T06:23:26.261Z,5
2018-11-12T06:24:34.301Z,5
2018-11-12T06:25:42.379Z,5
2018-11-12T06:26:50.453Z,10
2018-11-12T06:27:58.491Z,10
2018-11-12T06:29:06.558Z,10
2018-11-12T06:30:14.602Z,10
2018-11-12T06:31:22.722Z,10
2018-11-12T06:32:30.825Z,15
2018-11-12T06:33:38.796Z,15
2018-11-12T06:34:46.842Z,15
2018-11-12T06:35:54.880Z,15
2018-11-12T06:37:02.962Z,20
2018-11-12T06:38:11.024Z,20
2018-11-12T06:39:19.082Z,20
2018-11-12T06:40:27.158Z,20
2018-11-12T06:41:35.189Z,25
2018-11-12T06:42:43.438Z,25
2018-11-12T06:43:51.326Z,25
2018-11-12T06:44:59.400Z,25
2018-11-12T06:46:07.443Z,30
2018-11-12T06:47:15.499Z,30
2018-11-12T06:48:23.562Z,30
2018-11-12T06:49:31.624Z,35
2018-11-12T06:50:39.678Z,35
2018-11-12T06:51:47.736Z,35
2018-11-12T06:52:55.873Z,35
2018-11-12T06:54:03.877Z,35
2018-11-12T06:55:11.922Z,40
2018-11-12T06:56:19.966Z,40
2018-11-12T06:57:28.029Z,40
2018-11-12T06:58:36.102Z,40
2018-11-12T06:59:44.151Z,45
2018-11-12T07:00:52.263Z,45
2018-11-12T07:02:00.271Z,45
2018-11-12T07:03:08.339Z,50
2018-11-12T07:04:16.395Z,50
2018-11-12T07:05:24.424Z,50
2018-11-12T07:06:32.527Z,55
2018-11-12T07:07:40.586Z,55
2018-11-12T07:08:48.641Z,60
2018-11-12T07:09:56.675Z,60
2018-11-12T07:11:04.721Z,60
2018-11-12T07:12:12.809Z,60
2018-11-12T07:13:20.955Z,55
2018-11-12T07:14:28.915Z,55
2018-11-12T07:15:36.984Z,60
2018-11-12T07:16:45.031Z,60
2018-11-12T07:17:53.107Z,60
2018-11-12T07:19:01.347Z,60
2018-11-12T07:20:09.235Z,60
2018-11-12T07:21:17.292Z,60
2018-11-12T07:22:25.345Z,65
2018-11-12T07:23:33.406Z,60
2018-11-12T07:24:41.464Z,60
2018-11-12T07:25:49.526Z,60
2018-11-12T07:26:57.587Z,70
2018-11-12T07:28:05.652Z,70
2018-11-12T07:29:13.721Z,70
2018-11-12T07:30:21.776Z,70
2018-11-12T07:31:29.839Z,70
2018-11-12T07:32:37.882Z,70
2018-11-12T07:33:45.940Z,70
2018-11-12T07:34:54.009Z,70
2018-11-12T07:36:02.082Z,75
2018-11-12T07:37:10.143Z,75
2018-11-12T07:38:18.177Z,70
2018-11-12T07:39:26.253Z,70
2018-11-12T07:40:34.302Z,75
2018-11-12T07:41:42.409Z,70
2018-11-12T07:42:50.427Z,75
2018-11-12T07:43:58.485Z,80
2018-11-12T07:45:06.536Z,80
2018-11-12T07:46:14.589Z,75
2018-11-12T07:47:22.683Z,80
2018-11-12T07:48:30.762Z,80
2018-11-12T07:49:38.807Z,80
2018-11-12T07:50:46.858Z,70
2018-11-12T07:51:54.888Z,80
2018-11-12T07:53:02.994Z,85
2018-11-12T07:54:11.037Z,85
2018-11-12T07:55:19.116Z,85
2018-11-12T07:56:27.205Z,85
2018-11-12T07:57:35.229Z,80
2018-11-12T07:58:43.284Z,80
2018-11-12T07:59:51.342Z,75
2018-11-12T08:00:59.397Z,80
2018-11-12T08:02:07.459Z,90
2018-11-12T08:03:15.591Z,100
2018-11-12T08:04:23.576Z,90
2018-11-12T08:05:31.637Z,85
2018-11-12T08:06:39.715Z,100
2018-11-12T08:07:47.765Z,140
2018-11-12T08:08:55.854Z,160
2018-11-12T08:10:03.893Z,155
2018-11-12T08:11:11.947Z,130
2018-11-12T08:12:20.003Z,120
2018-11-12T08:13:28.175Z,120
2018-11-12T08:14:36.221Z,105
2018-11-12T08:15:44.182Z,95
2018-11-12T08:16:52.267Z,85
2018-11-12T08:18:00.309Z,80
2018-11-12T08:19:08.388Z,90
2018-11-12T08:20:16.457Z,90
2018-11-12T08:21:24.476Z,90
2018-11-12T08:22:32.561Z,85
2018-11-12T08:23:40.638Z,85
2018-11-12T08:24:48.810Z,85
2018-11-12T08:25:56.759Z,90
2018-11-12T08:27:04.782Z,105
2018-11-12T08:28:12.862Z,125
2018-11-12T08:29:20.956Z,150
2018-11-12T08:30:29.067Z,170
2018-11-12T08:31:37.057Z,180
2018-11-12T08:32:45.182Z,185
2018-11-12T08:33:53.188Z,190
2018-11-12T08:35:01.256Z,185
2018-11-12T08:36:09.370Z,160
2018-11-12T08:37:17.362Z,140
2018-11-12T08:38:25.433Z,115
2018-11-12T08:39:33.718Z,95
2018-11-12T08:40:41.612Z,85
2018-11-12T08:41:49.617Z,85
2018-11-12T08:42:57.688Z,115
2018-11-12T08:44:05.753Z,155
2018-11-12T08:45:13.805Z,200
2018-11-12T08:46:21.869Z,190
2018-11-12T08:47:29.945Z,170
2018-11-12T08:48:38.023Z,155
2018-11-12T08:49:46.165Z,165
2018-11-12T08:50:54.117Z,175
2018-11-12T08:52:02.252Z,205
2018-11-12T08:53:10.258Z,200
2018-11-12T08:54:18.372Z,205
2018-11-12T08:55:26.422Z,195
2018-11-12T08:56:34.415Z,200
2018-11-12T08:57:42.550Z,175
2018-11-12T08:58:50.565Z,180
2018-11-12T08:59:58.637Z,210
2018-11-12T09:01:06.691Z,235
2018-11-12T09:02:14.718Z,260
2018-11-12T09:03:22.827Z,280
2018-11-12T09:04:30.885Z,305
2018-11-12T09:05:39.036Z,285
2018-11-12T09:06:47.023Z,230
2018-11-12T09:07:55.061Z,205
2018-11-12T09:09:03.129Z,225
2018-11-12T09:10:11.293Z,265
2018-11-12T09:11:19.256Z,295
2018-11-12T09:12:27.331Z,270
2018-11-12T09:13:35.425Z,230
2018-11-12T09:14:43.464Z,185
2018-11-12T09:15:51.569Z,140
2018-11-12T09:16:59.580Z,125
2018-11-12T09:18:07.676Z,140
2018-11-12T09:19:15.729Z,185
2018-11-12T09:20:23.778Z,210
2018-11-12T09:21:31.838Z,235
2018-11-12T09:22:39.901Z,235
2018-11-12T09:23:47.969Z,225
2018-11-12T09:24:56.032Z,205
2018-11-12T09:26:04.076Z,210
2018-11-12T09:27:12.168Z,195
2018-11-12T09:28:20.231Z,175
2018-11-12T09:29:28.351Z,150
2018-11-12T09:30:36.354Z,135
2018-11-12T09:31:44.384Z,130
2018-11-12T09:32:52.597Z,130
2018-11-12T09:34:00.540Z,135
2018-11-12T09:35:08.612Z,145
2018-11-12T09:36:16.669Z,160
2018-11-12T09:37:24.762Z,145
2018-11-12T09:38:32.842Z,135
2018-11-12T09:39:41.054Z,135
2018-11-12T09:40:48.949Z,155
2018-11-12T09:41:57.002Z,160
2018-11-12T09:43:05.072Z,155
2018-11-12T09:44:13.133Z,150
2018-11-12T09:45:21.192Z,160
2018-11-12T09:46:29.250Z,190
2018-11-12T09:47:37.336Z,235
2018-11-12T09:48:45.452Z,280
2018-11-12T09:49:53.468Z,270
2018-11-12T09:51:01.523Z,290
2018-11-12T09:52:09.576Z,290
2018-11-12T09:53:17.638Z,240
2018-11-12T09:54:28.525Z,235
2018-11-12T09:55:36.452Z,245
2018-11-12T09:56:44.424Z,245
2018-11-12T09:57:52.504Z,210
2018-11-12T09:59:00.566Z,185
2018-11-12T10:00:08.662Z,185
2018-11-12T10:01:17.269Z,175
2018-11-12T10:02:25.831Z,155
2018-11-12T10:03:33.863Z,160
2018-11-12T10:07:07.160Z,200
2018-11-12T10:08:15.209Z,210
2018-11-12T10:09:23.861Z,210
2018-11-12T10:10:32.414Z,230
2018-11-12T10:11:40.307Z,215
2018-11-12T10:12:52.082Z,200
2018-11-12T10:14:01.824Z,210
2018-11-12T10:15:08.719Z,220
2018-11-12T10:16:16.766Z,220
2018-11-12T10:17:25.410Z,230
2018-11-12T10:18:30.205Z,230
2018-11-12T10:19:38.346Z,255
2018-11-12T10:20:46.324Z,275
2018-11-12T10:21:54.384Z,250
2018-11-12T10:23:02.467Z,205
2018-11-12T10:24:10.520Z,165
2018-11-12T10:25:18.595Z,145
2018-11-12T10:26:26.688Z,120
2018-11-12T10:27:37.344Z,110
2018-11-12T10:28:45.391Z,105
2018-11-12T10:31:02.137Z,195
2018-11-12T10:32:10.204Z,235
2018-11-12T10:33:18.317Z,270
2018-11-12T10:35:36.260Z,270
2018-11-12T10:36:44.272Z,265
2018-11-12T10:37:52.316Z,285
2018-11-12T10:39:00.401Z,245
2018-11-12T10:40:10.091Z,190
2018-11-12T10:41:17.959Z,195
2018-11-12T10:42:28.020Z,190
2018-11-12T10:43:38.463Z,190
2018-11-12T10:44:46.368Z,195
2018-11-12T10:45:54.389Z,205
2018-11-12T10:47:02.488Z,220
2018-11-12T10:48:10.683Z,260
2018-11-12T10:49:18.622Z,280
2018-11-12T10:50:26.684Z,285
2018-11-12T10:51:34.710Z,270
2018-11-12T10:52:42.864Z,230
2018-11-12T10:53:50.922Z,215
2018-11-12T10:55:04.900Z,220
2018-11-12T10:56:07.086Z,210
2018-11-12T10:57:15.067Z,185
2018-11-12T10:58:23.200Z,210
2018-11-12T10:59:31.211Z,220
2018-11-12T11:00:39.323Z,200
2018-11-12T11:01:47.349Z,205
2018-11-12T11:02:55.410Z,270
2018-11-12T11:04:03.483Z,320
2018-11-12T11:05:11.554Z,280
2018-11-12T11:06:19.598Z,210
2018-11-12T11:07:27.682Z,235
2018-11-12T11:08:35.739Z,240
2018-11-12T11:09:43.806Z,200
2018-11-12T11:10:51.879Z,150
2018-11-12T11:11:59.943Z,115
2018-11-12T11:13:08.040Z,100
2018-11-12T11:14:16.080Z,105
2018-11-12T11:15:24.149Z,115
2018-11-12T11:16:32.220Z,120
2018-11-12T11:17:40.265Z,110
2018-11-12T11:18:48.333Z,95
2018-11-12T11:19:56.394Z,95
2018-11-12T11:21:04.517Z,105
2018-11-12T11:22:12.546Z,145
2018-11-12T11:23:20.605Z,200
2018-11-12T11:24:28.658Z,245
2018-11-12T11:25:36.795Z,320
2018-11-12T11:26:44.846Z,320
2018-11-12T11:27:52.864Z,285
2018-11-12T11:29:00.939Z,270
2018-11-12T11:30:09.001Z,250
2018-11-12T11:31:17.070Z,235
2018-11-12T11:32:25.174Z,240
2018-11-12T11:33:33.202Z,270
2018-11-12T11:34:41.290Z,325
2018-11-12T11:35:49.343Z,305
2018-11-12T11:36:57.389Z,265
2018-11-12T11:38:05.479Z,250
2018-11-12T11:39:13.543Z,225
2018-11-12T11:40:21.736Z,215
2018-11-12T11:41:29.672Z,235
2018-11-12T11:42:37.758Z,300
2018-11-12T11:43:45.813Z,290
2018-11-12T11:44:53.890Z,290
2018-11-12T11:46:02.002Z,245
2018-11-12T11:47:10.028Z,215
2018-11-12T11:48:18.256Z,210
2018-11-12T11:49:26.153Z,190
2018-11-12T11:50:34.200Z,175
2018-11-12T11:51:42.294Z,175
2018-11-12T11:52:50.354Z,165
2018-11-12T11:53:58.415Z,165
2018-11-12T11:55:06.485Z,190
2018-11-12T11:56:14.558Z,210
2018-11-12T11:57:22.753Z,230
2018-11-12T11:58:30.687Z,260
2018-11-12T11:59:38.748Z,260
2018-11-12T12:00:46.818Z,215
2018-11-12T12:01:54.857Z,170
2018-11-12T12:03:03.030Z,155
2018-11-12T12:04:11.016Z,175
2018-11-12T12:05:19.088Z,170
2018-11-12T12:06:27.164Z,155
2018-11-12T12:07:35.206Z,145
2018-11-12T12:08:43.310Z,165
2018-11-12T12:09:51.354Z,145
2018-11-12T12:10:59.402Z,130
2018-11-12T12:12:07.465Z,145
2018-11-12T12:13:15.540Z,150
2018-11-12T12:14:23.601Z,160
2018-11-12T12:15:31.692Z,150
2018-11-12T12:16:39.753Z,170
2018-11-12T12:17:47.806Z,265
2018-11-12T12:18:55.886Z,280
2018-11-12T12:20:03.966Z,250
2018-11-12T12:21:12.025Z,190
2018-11-12T12:22:20.110Z,170
2018-11-12T12:23:28.140Z,160
2018-11-12T12:24:36.457Z,155
2018-11-12T12:25:44.339Z,145
2018-11-12T12:26:52.352Z,145
2018-11-12T12:28:00.427Z,160
2018-11-12T12:29:08.493Z,165
2018-11-12T12:30:16.562Z,160
2018-11-12T12:31:24.594Z,155
2018-11-12T12:32:32.688Z,175
2018-11-12T12:33:40.747Z,195
2018-11-12T12:34:48.838Z,165
2018-11-12T12:35:56.911Z,155
2018-11-12T12:37:04.918Z,160
2018-11-12T12:38:13.039Z,160
2018-11-12T12:39:21.087Z,210
2018-11-12T12:40:29.135Z,240
2018-11-12T12:41:37.214Z,205
2018-11-12T12:42:45.280Z,160
2018-11-12T12:43:53.354Z,160
2018-11-12T12:45:01.537Z,150
2018-11-12T12:46:09.474Z,130
2018-11-12T12:47:17.559Z,165
2018-11-12T12:48:25.609Z,195
2018-11-12T12:49:33.820Z,185
2018-11-12T12:50:41.751Z,175
2018-11-12T12:51:49.816Z,195
2018-11-12T12:52:57.864Z,190
2018-11-12T12:54:05.949Z,180
2018-11-12T12:55:14.101Z,185
2018-11-12T12:56:22.121Z,185
2018-11-12T12:57:30.147Z,170
2018-11-12T12:58:38.201Z,175
2018-11-12T12:59:46.309Z,185
2018-11-12T13:00:54.336Z,200
2018-11-12T13:02:02.426Z,225
2018-11-12T13:03:10.465Z,230
2018-11-12T13:04:18.538Z,190
2018-11-12T13:05:26.615Z,160
2018-11-12T13:06:34.668Z,155
2018-11-12T13:07:42.745Z,160
2018-11-12T13:08:50.808Z,180
2018-11-12T13:09:58.879Z,185
2018-11-12T13:11:06.941Z,195
2018-11-12T13:12:14.988Z,195
2018-11-12T13:13:23.093Z,165
2018-11-12T13:14:31.196Z,175
2018-11-12T13:15:39.206Z,205
2018-11-12T13:16:47.263Z,205
2018-11-12T13:17:55.346Z,205
2018-11-12T13:19:03.422Z,215
2018-11-12T13:20:11.481Z,210
2018-11-12T13:21:19.594Z,175
2018-11-12T13:22:27.601Z,155
2018-11-12T13:23:35.684Z,150
2018-11-12T13:24:43.748Z,155
2018-11-12T13:25:51.813Z,145
2018-11-12T13:26:59.903Z,155
2018-11-12T13:28:07.961Z,175
2018-11-12T13:29:15.995Z,185
2018-11-12T13:30:24.085Z,170
2018-11-12T13:31:32.147Z,170
2018-11-12T13:32:40.217Z,170
2018-11-12T13:33:48.306Z,185
2018-11-12T13:34:56.342Z,205
2018-11-12T13:36:04.390Z,180
2018-11-12T13:37:12.488Z,155
2018-11-12T13:38:20.550Z,145
2018-11-12T13:39:28.691Z,155
2018-11-12T13:40:36.689Z,185
2018-11-12T13:41:44.735Z,170
2018-11-12T13:42:52.859Z,150
2018-11-12T13:44:00.893Z,150
2018-11-12T13:45:08.953Z,150
2018-11-12T13:46:17.037Z,185
2018-11-12T13:47:25.076Z,160
2018-11-12T13:48:33.166Z,130
2018-11-12T13:49:41.223Z,140
2018-11-12T13:50:49.288Z,160
2018-11-12T13:51:57.362Z,160
2018-11-12T13:53:05.541Z,155
2018-11-12T13:54:13.492Z,125
2018-11-12T13:55:21.570Z,115
2018-11-12T13:56:29.630Z,110
2018-11-12T13:57:37.721Z,120
2018-11-12T13:58:45.766Z,130
2018-11-12T13:59:53.834Z,130
2018-11-12T14:01:01.894Z,130
2018-11-12T14:02:09.975Z,120
2018-11-12T14:03:18.035Z,100
2018-11-12T14:04:26.103Z,90
2018-11-12T14:05:34.156Z,80
2018-11-12T14:06:42.233Z,85
2018-11-12T14:07:50.287Z,90
2018-11-12T14:08:58.363Z,100
2018-11-12T14:10:06.421Z,100
2018-11-12T14:11:14.460Z,85
2018-11-12T14:12:22.555Z,80
2018-11-12T14:13:30.629Z,75
2018-11-12T14:14:38.674Z,80
2018-11-12T14:15:46.765Z,80
2018-11-12T14:16:54.783Z,80
2018-11-12T14:18:02.879Z,80
2018-11-12T14:19:10.944Z,75
2018-11-12T14:20:19.107Z,80
2018-11-12T14:21:27.319Z,85
2018-11-12T14:22:35.128Z,90
2018-11-12T14:23:43.203Z,95
2018-11-12T14:24:51.273Z,90
2018-11-12T14:25:59.346Z,90
2018-11-12T14:27:07.411Z,80
2018-11-12T14:28:15.525Z,80
2018-11-12T14:29:23.526Z,80
2018-11-12T14:30:31.601Z,90
2018-11-12T14:31:39.685Z,100
2018-11-12T14:32:47.721Z,85
2018-11-12T14:33:55.788Z,80
2018-11-12T14:35:03.848Z,80
2018-11-12T14:36:12.063Z,85
2018-11-12T14:37:19.980Z,85
2018-11-12T14:38:28.043Z,80
2018-11-12T14:39:36.176Z,80
2018-11-12T14:40:44.166Z,80
2018-11-12T14:41:52.244Z,80
2018-11-12T14:43:00.317Z,85
2018-11-12T14:44:08.369Z,85
2018-11-12T14:45:16.527Z,80
2018-11-12T14:46:24.484Z,80
2018-11-12T14:47:32.581Z,80
2018-11-12T14:48:40.671Z,75
2018-11-12T14:49:48.699Z,85
2018-11-12T14:50:56.818Z,85
2018-11-12T14:52:04.808Z,80
2018-11-12T14:53:12.888Z,80
2018-11-12T14:54:20.976Z,75
2018-11-12T14:55:29.028Z,80
2018-11-12T14:56:37.088Z,75
2018-11-12T14:57:45.146Z,75
2018-11-12T14:58:53.222Z,70
2018-11-12T15:00:01.284Z,65
2018-11-12T15:01:09.359Z,65
2018-11-12T15:02:17.415Z,65
2018-11-12T15:03:25.508Z,60
2018-11-12T15:04:33.549Z,65
2018-11-12T15:05:41.609Z,60
2018-11-12T15:06:49.658Z,60
2018-11-12T15:07:57.745Z,60
2018-11-12T15:09:05.850Z,60
2018-11-12T15:10:13.875Z,60
2018-11-12T15:11:21.920Z,55
2018-11-12T15:12:30.091Z,50
2018-11-12T15:13:38.054Z,50
2018-11-12T15:14:46.225Z,50
2018-11-12T15:15:54.166Z,45
2018-11-12T15:17:02.259Z,45
2018-11-12T15:18:10.311Z,45
2018-11-12T15:19:18.383Z,45
2018-11-12T15:20:26.442Z,45
2018-11-12T15:21:34.490Z,40
2018-11-12T15:22:42.640Z,35
2018-11-12T15:23:50.636Z,40
2018-11-12T15:24:58.687Z,40
2018-11-12T15:26:06.762Z,35
2018-11-12T15:27:14.804Z,30
2018-11-12T15:28:22.898Z,30
2018-11-12T15:29:31.059Z,30
2018-11-12T15:30:39.025Z,25
2018-11-12T15:31:47.077Z,25
2018-11-12T15:32:55.144Z,25
2018-11-12T15:34:03.212Z,25
2018-11-12T15:35:12.291Z,20
2018-11-12T15:36:26.245Z,20
2018-11-12T15:37:48.556Z,20
2018-11-12T15:38:43.716Z,15
2018-11-12T15:39:51.786Z,15
2018-11-12T15:40:59.842Z,15
2018-11-12T15:42:07.913Z,15
2018-11-12T15:43:19.234Z,10
2018-11-12T15:44:29.674Z,10
2018-11-12T15:45:37.737Z,10
2018-11-12T15:46:45.809Z,10
2018-11-12T15:47:56.486Z,10
2018-11-12T15:49:04.522Z,10
2018-11-12T15:50:12.604Z,5
2018-11-12T15:51:23.703Z,5
2018-11-12T15:52:31.356Z,5
2018-11-12T15:53:39.409Z,5
2018-11-12T15:54:48.079Z,5
2018-11-12T15:55:55.530Z,5
2018-11-12T15:57:03.679Z,0
2018-11-12T15:58:11.725Z,0
2018-11-12T15:59:19.721Z,0
2018-11-12T16:00:27.776Z,0
2018-11-12T16:01:35.862Z,0
2018-11-12T16:02:43.913Z,0
2018-11-12T16:03:51.983Z,0
2018-11-12T16:05:00.048Z,0
2018-11-12T16:06:08.323Z,0
2018-11-12T16:07:16.166Z,0
2018-11-12T16:08:24.214Z,0
2018-11-12T16:09:32.293Z,0
2018-11-12T16:10:40.382Z,0
2018-11-12T16:11:48.449Z,0
2018-11-12T16:12:56.479Z,0
2018-11-12T16:14:04.520Z,0
2018-11-12T16:15:12.620Z,0
2018-11-12T16:16:20.684Z,0
2018-11-12T16:17:28.734Z,0
2018-11-12T16:18:36.801Z,0
2018-11-12T16:19:44.841Z,0